Z17G weather

Al Qatranah Highway Strip
Ma'an Governorate, Jordan

Public forecast

Using degrees Celsius for public forecast. Weather courtesy of forecast.io.

Closest aviation weather report (METAR) to Al Qatranah Highway Strip

Closest report is Queen Alia International Airport, 30.6 nm (56.7 km) NNW. Retrieved 2020/08/06 12:00 UTC (48 minutes ago):

OJAI 061200Z 28012KT 6000 NSC 32/14 Q1011 NOSIG

Closest aviation forecast (TAF) to Al Qatranah Highway Strip

Closest forecast is Queen Alia International Airport, 30.6 nm (56.7 km) NNW. Retrieved 2020/08/06 12:15 UTC (33 minutes ago):

TAF TAF OJAI 061033Z 0612/0718 28012KT 6000 NSC PROB40 TEMPO 0612/0618 30016KT 4000 BLDU